createdAt,value
2022-08-05T00:00:51.663Z,27.72
2022-08-05T00:06:03.327Z,27.65
2022-08-05T00:10:37.024Z,27.68
2022-08-05T00:15:54.803Z,27.65
2022-08-05T00:20:22.228Z,27.56
2022-08-05T00:25:14.854Z,27.57
2022-08-05T00:30:11.251Z,27.56
2022-08-05T00:35:06.451Z,27.55
2022-08-05T00:39:57.672Z,27.54
2022-08-05T00:44:45.250Z,27.51
2022-08-05T00:49:44.510Z,27.46
2022-08-05T00:54:30.576Z,27.47
2022-08-05T00:59:23.225Z,27.45
2022-08-05T01:04:16.175Z,27.44
2022-08-05T01:09:08.549Z,27.41
2022-08-05T01:14:01.218Z,27.39
2022-08-05T01:18:56.260Z,27.36
2022-08-05T01:23:47.192Z,27.39
2022-08-05T01:28:39.378Z,27.37
2022-08-05T01:33:35.243Z,27.39
2022-08-05T01:38:25.043Z,27.38
2022-08-05T01:43:22.187Z,27.35
2022-08-05T01:48:10.334Z,27.36
2022-08-05T01:53:02.394Z,27.36
2022-08-05T01:58:09.205Z,27.34
2022-08-05T02:02:51.311Z,27.3
2022-08-05T02:07:40.282Z,27.32
2022-08-05T02:12:32.950Z,27.28
2022-08-05T02:17:29.711Z,27.29
2022-08-05T02:22:25.979Z,27.32
2022-08-05T02:27:10.718Z,27.27
2022-08-05T02:32:04.658Z,27.24
2022-08-05T02:36:56.217Z,27.22
2022-08-05T02:41:57.714Z,27.23
2022-08-05T02:46:44.176Z,27.25
2022-08-05T02:52:01.102Z,27.23
2022-08-05T02:56:26.702Z,27.23
2022-08-05T03:01:19.685Z,27.2
2022-08-05T03:06:53.139Z,27.15
2022-08-05T03:11:55.946Z,27.16
2022-08-05T03:15:57.112Z,27.18
2022-08-05T03:20:50.364Z,27.13
2022-08-05T03:26:05.141Z,27.15
2022-08-05T03:30:35.489Z,27.13
2022-08-05T03:35:28.167Z,27.14
2022-08-05T03:40:24.550Z,27.15
2022-08-05T03:45:21.235Z,27.11
2022-08-05T03:50:06.091Z,27.11
2022-08-05T03:55:49.671Z,26.99
2022-08-05T03:59:54.587Z,26.89
2022-08-05T04:04:44.857Z,26.94
2022-08-05T04:09:36.757Z,26.61
2022-08-05T04:14:29.689Z,26.27
2022-08-05T04:19:21.234Z,26.35
2022-08-05T04:24:19.064Z,26.25
2022-08-05T04:29:08.367Z,26.24
2022-08-05T04:34:17.813Z,26.02
2022-08-05T04:38:53.736Z,26.09
2022-08-05T04:43:46.749Z,25.91
2022-08-05T04:48:38.849Z,26
2022-08-05T04:53:33.439Z,25.95
2022-08-05T04:58:24.057Z,26.01
2022-08-05T05:03:16.936Z,26.11
2022-08-05T05:08:14.250Z,25.78
2022-08-05T05:13:01.678Z,25.71
2022-08-05T05:17:56.049Z,25.99
2022-08-05T05:22:47.171Z,25.97
2022-08-05T05:27:41.989Z,25.79
2022-08-05T05:32:32.149Z,25.67
2022-08-05T05:37:29.254Z,25.72
2022-08-05T05:42:16.960Z,25.94
2022-08-05T05:52:06.114Z,25.87
2022-08-05T05:56:54.829Z,26.15
2022-08-05T06:01:57.408Z,26.1
2022-08-05T06:06:41.634Z,25.99
2022-08-05T06:11:32.832Z,26.07
2022-08-05T06:16:28.001Z,25.87
2022-08-05T06:21:18.712Z,26.01
2022-08-05T06:26:13.991Z,26.06
2022-08-05T06:31:10.982Z,26.2
2022-08-05T06:36:03.315Z,26.03
2022-08-05T06:40:48.350Z,26.21
2022-08-05T06:45:44.352Z,25.89
2022-08-05T06:50:33.680Z,26.17
2022-08-05T06:55:27.237Z,26.14
2022-08-05T07:00:22.122Z,26.31
2022-08-05T07:05:11.673Z,26.48
2022-08-05T07:10:06.572Z,26.43
2022-08-05T07:14:58.696Z,26.44
2022-08-05T07:20:31.168Z,26.46
2022-08-05T07:24:52.405Z,26.58
2022-08-05T07:30:21.948Z,26.8
2022-08-05T07:34:28.532Z,26.9
2022-08-05T07:39:24.322Z,27.02
2022-08-05T07:44:14.628Z,27.1
2022-08-05T07:49:06.091Z,27.13
2022-08-05T07:53:57.453Z,27.18
2022-08-05T07:58:55.229Z,27.21
2022-08-05T08:03:44.236Z,27.21
2022-08-05T08:08:35.989Z,27.23
2022-08-05T08:13:28.938Z,27.25
2022-08-05T08:18:21.521Z,27.28
2022-08-05T08:24:00.618Z,27.3
2022-08-05T08:28:06.403Z,27.31
2022-08-05T08:32:58.646Z,27.3
2022-08-05T08:37:51.820Z,27.34
2022-08-05T08:42:46.730Z,27.35
2022-08-05T08:47:47.962Z,27.34
2022-08-05T08:52:29.374Z,27.35
2022-08-05T08:57:21.443Z,27.37
2022-08-05T09:02:14.141Z,27.38
2022-08-05T09:07:10.618Z,27.38
2022-08-05T09:12:03.307Z,27.42
2022-08-05T09:16:52.045Z,27.43
2022-08-05T09:22:18.325Z,27.43
2022-08-05T09:26:37.554Z,27.44
2022-08-05T09:32:38.901Z,27.44
2022-08-05T09:36:27.297Z,27.52
2022-08-05T09:41:16.035Z,27.62
2022-08-05T09:46:08.781Z,27.6
2022-08-05T09:51:00.477Z,27.6
2022-08-05T09:55:55.893Z,27.63
2022-08-05T10:00:45.874Z,27.66
2022-08-05T10:05:38.525Z,27.72
2022-08-05T10:10:32.370Z,27.75
2022-08-05T10:15:23.536Z,27.78
2022-08-05T10:20:16.059Z,27.82
2022-08-05T10:25:08.669Z,27.84
2022-08-05T10:30:07.316Z,27.87
2022-08-05T10:34:54.265Z,27.9
2022-08-05T10:39:58.768Z,27.92
2022-08-05T10:44:39.426Z,27.92
2022-08-05T10:49:33.131Z,27.96
2022-08-05T10:54:28.239Z,27.97
2022-08-05T11:00:01.088Z,27.99
2022-08-05T11:04:09.898Z,28
2022-08-05T11:09:02.496Z,27.99
2022-08-05T11:13:58.166Z,28.06
2022-08-05T11:18:47.694Z,28.06
2022-08-05T11:24:03.543Z,28.09
2022-08-05T11:28:32.823Z,28.13
2022-08-05T11:33:25.504Z,28.13
2022-08-05T11:38:36.531Z,28.14
2022-08-05T11:43:10.634Z,28.15
2022-08-05T11:48:03.602Z,28.22
2022-08-05T11:52:58.060Z,28.28
2022-08-05T11:58:08.797Z,28.32
2022-08-05T12:02:41.888Z,28.35
2022-08-05T12:08:03.893Z,28.37
2022-08-05T12:12:27.635Z,28.4
2022-08-05T12:18:00.624Z,28.41
2022-08-05T12:22:12.734Z,28.45
2022-08-05T12:27:09.565Z,28.46
2022-08-05T12:36:50.407Z,28.49
2022-08-05T12:41:43.514Z,28.53
2022-08-05T12:46:36.063Z,28.54
2022-08-05T12:56:34.718Z,28.62
2022-08-05T13:01:59.268Z,28.63
2022-08-05T13:06:06.675Z,28.63
2022-08-05T13:10:59.138Z,28.64
2022-08-05T13:15:52.015Z,28.68
2022-08-05T13:20:44.592Z,28.67
2022-08-05T13:25:51.439Z,28.7
2022-08-05T13:30:32.467Z,28.74
2022-08-05T13:35:31.610Z,28.77
2022-08-05T13:40:35.831Z,28.8
2022-08-05T13:45:08.537Z,28.79
2022-08-05T13:50:01.365Z,28.81
2022-08-05T13:54:54.098Z,28.82
2022-08-05T13:59:55.347Z,28.85
2022-08-05T14:04:39.410Z,28.86
2022-08-05T14:09:32.058Z,28.91
2022-08-05T14:14:25.521Z,28.91
2022-08-05T14:19:17.759Z,28.94
2022-08-05T14:24:10.536Z,28.94
2022-08-05T14:29:00.078Z,28.98
2022-08-05T14:33:56.928Z,29
2022-08-05T14:38:46.333Z,28.97
2022-08-05T14:43:59.766Z,28.98
2022-08-05T14:48:32.820Z,29.01
2022-08-05T14:53:24.237Z,29.03
2022-08-05T14:58:16.485Z,29.05
2022-08-05T15:03:09.557Z,29.05
2022-08-05T15:08:06.814Z,29.05
2022-08-05T15:13:00.793Z,29.08
2022-08-05T15:17:51.971Z,29.11
2022-08-05T15:22:39.872Z,29.09
2022-08-05T15:27:35.960Z,29.13
2022-08-05T15:32:27.298Z,29.11
2022-08-05T15:37:20.702Z,29.13
2022-08-05T15:42:50.171Z,29.1
2022-08-05T15:47:03.237Z,29.1
2022-08-05T15:52:03.430Z,29.1
2022-08-05T15:56:48.389Z,29.09
2022-08-05T16:01:52.169Z,29.04
2022-08-05T16:06:33.426Z,29.02
2022-08-05T16:11:40.401Z,29.04
2022-08-05T16:16:21.173Z,29.02
2022-08-05T16:21:10.892Z,28.61
2022-08-05T16:26:03.136Z,28.28
2022-08-05T16:30:55.714Z,27.98
2022-08-05T16:35:49.976Z,27.73
2022-08-05T16:40:40.364Z,27.61
2022-08-05T16:46:02.678Z,27.47
2022-08-05T16:50:25.176Z,27.45
2022-08-05T16:55:17.755Z,27.37
2022-08-05T17:00:10.478Z,27.42
2022-08-05T17:05:03.310Z,27.32
2022-08-05T17:09:57.919Z,27.31
2022-08-05T17:14:48.581Z,27.19
2022-08-05T17:19:41.193Z,26.99
2022-08-05T17:24:35.253Z,26.68
2022-08-05T17:29:32.907Z,26.46
2022-08-05T17:34:18.844Z,26.7
2022-08-05T17:39:23.999Z,26.73
2022-08-05T17:44:04.061Z,26.65
2022-08-05T17:48:56.530Z,26.36
2022-08-05T17:53:50.679Z,26.22
2022-08-05T17:58:41.028Z,26.09
2022-08-05T18:03:56.698Z,26.14
2022-08-05T18:08:25.772Z,25.89
2022-08-05T18:13:18.474Z,25.86
2022-08-05T18:23:09.668Z,25.57
2022-08-05T18:27:55.974Z,25.89
2022-08-05T18:32:53.253Z,25.72
2022-08-05T18:37:41.016Z,25.42
2022-08-05T18:42:33.481Z,25.71
2022-08-05T18:47:22.664Z,26.13
2022-08-05T18:52:17.158Z,26.32
2022-08-05T18:57:15.091Z,26.4
2022-08-05T19:02:02.693Z,26.47
2022-08-05T19:06:55.364Z,26.53
2022-08-05T19:11:59.753Z,26.62
2022-08-05T19:16:44.967Z,26.64
2022-08-05T19:21:35.005Z,26.66
2022-08-05T19:26:26.616Z,26.68
2022-08-05T19:31:19.365Z,26.67
2022-08-05T19:36:11.881Z,26.71
2022-08-05T19:41:06.941Z,26.73
2022-08-05T19:45:57.039Z,26.78
2022-08-05T19:50:49.737Z,26.76
2022-08-05T19:56:12.060Z,26.81
2022-08-05T20:00:34.992Z,26.81
2022-08-05T20:05:27.433Z,26.82
2022-08-05T20:10:22.252Z,26.73
2022-08-05T20:15:12.027Z,26.84
2022-08-05T20:20:08.972Z,26.86
2022-08-05T20:24:57.002Z,26.67
2022-08-05T20:29:52.400Z,26.64
2022-08-05T20:34:42.161Z,26.68
2022-08-05T20:39:35.738Z,26.76
2022-08-05T20:44:29.310Z,26.77
2022-08-05T20:49:24.297Z,26.71
2022-08-05T20:54:14.017Z,26.74
2022-08-05T20:59:13.934Z,26.76
2022-08-05T21:03:58.029Z,26.73
2022-08-05T21:08:50.488Z,26.76
2022-08-05T21:13:46.947Z,26.75
2022-08-05T21:18:35.787Z,26.66
2022-08-05T21:23:27.883Z,26.65
2022-08-05T21:28:23.549Z,26.67
2022-08-05T21:33:22.211Z,26.72
2022-08-05T21:38:05.834Z,26.69
2022-08-05T21:42:59.133Z,26.73
2022-08-05T21:47:55.439Z,26.76
2022-08-05T21:52:45.931Z,26.77
2022-08-05T21:57:36.529Z,26.74
2022-08-05T22:02:29.076Z,26.72
2022-08-05T22:07:39.271Z,26.76
2022-08-05T22:12:14.486Z,26.75
2022-08-05T22:17:07.404Z,26.74
2022-08-05T22:21:59.597Z,26.73
2022-08-05T22:26:52.035Z,26.68
2022-08-05T22:31:45.276Z,26.7
2022-08-05T22:36:37.539Z,26.72
2022-08-05T22:42:05.307Z,26.66
2022-08-05T22:46:25.750Z,26.7
2022-08-05T22:51:23.062Z,26.7
2022-08-05T22:56:09.771Z,26.7
2022-08-05T23:01:00.763Z,26.66
2022-08-05T23:05:53.261Z,26.62
2022-08-05T23:10:45.596Z,26.62
2022-08-05T23:15:38.128Z,26.54
2022-08-05T23:20:30.806Z,26.52
2022-08-05T23:25:50.838Z,26.58
2022-08-05T23:30:16.019Z,26.53
2022-08-05T23:35:08.677Z,26.52
2022-08-05T23:40:00.975Z,26.4
2022-08-05T23:44:54.372Z,26.4
2022-08-05T23:49:46.058Z,26.31
2022-08-05T23:54:38.827Z,26.32
2022-08-05T23:59:37.894Z,26.32
